Terminal Aerodrome Forecast
Issued by NWS Cleveland, OH

Home | Current Version | Previous Version | Text Only | Print | Product List | Glossary On
Versions: 1 2 3 4 5 6 7 8 9 10 11 12 13 14 15 16 17 18 19
000
FTUS41 KCLE 180300 AAA
TAFERI
TAF AMD
KERI 180336Z 1804/1824 17012G20KT P6SM SCT150 OVC250
     FM181500 22010KT P6SM OVC100
     FM181900 27010KT P6SM VCSH SCT040 OVC100=

USA.gov is the U.S. government's official web portal to all federal, state and local government web resources and services.